Latest Coastal Weather Observations for Orbost

IDV60701

Issued at 9:05 pm EDT Friday 31 October 2014 (issued every 10 minutes, with the page automatically refreshed every 10 minutes)

About coastal observations | Map of coastal stations | Coastal observations for VIC | Marine services | Other Formats
Station Details ID: 084145 Name: ORBOST Lat: -37.69 Lon: 148.47 Height: 62.65 m
Data from the previous 72 hours. | See also: Recent months at Orbost
Date/Time
EDT
Temp

°C
Wind Pressure Rain
since 9am
mm
Weather Cloud Vis
km
Sea
Height
m
Swell
Dir
 
Speed
knots
Gust
knots
hPa Trend Height
m
Period
s
Dir
31/09:00pm 19.4 NE 1 3 1001.5 - 0.0 - - - - - - -
31/08:30pm 19.9 E 1 2 1001.6 - 0.0 - - - - - - -
31/08:00pm 19.9 CALM 0 0 1001.9 - 0.0 - - - - - - -
31/07:30pm 20.8 N 2 3 1002.2 - 0.0 - - - - - - -
31/07:00pm 21.5 NNW 1 2 1002.5 - 0.0 - - - - - - -
31/06:30pm 22.6 NE 1 2 1002.7 - 0.0 - - - - - - -
31/06:00pm 23.1 ESE 2 3 1003.1 - 0.0 - - - - - - -
31/05:30pm 23.5 NE 1 3 1003.2 - 0.0 - - - - - - -
31/05:00pm 23.6 SE 3 5 1003.4 - 0.0 - - - - - - -
31/04:30pm 23.8 SE 3 6 1003.6 - 0.0 - - - - - - -
31/04:00pm 24.9 S 4 6 1004.1 - 0.0 - - - - - - -
31/03:30pm 25.4 SSE 5 8 1004.5 - 0.0 - - - - - - -
31/03:00pm 25.0 SSE 6 10 1004.8 - 0.0 - - - - - - -
31/02:30pm 24.1 SSE 5 7 1005.4 - 0.0 - - - - - - -
31/02:00pm 23.3 SE 5 7 1005.9 - 0.0 - - - - - - -
31/01:30pm 22.8 SSE 4 7 1006.6 - 0.0 - - - - - - -
31/01:00pm 22.2 SSE 4 6 1007.1 - 0.0 - - - - - - -
31/12:30pm 21.4 SSE 4 7 1007.7 - 0.0 - - - - - - -
31/12:00pm 21.7 SSE 3 6 1008.1 - 0.0 - - - - - - -
31/11:30am 20.6 SSE 3 6 1008.6 - 0.0 - - - - - - -
31/11:00am 19.8 SSE 3 5 1009.3 - 0.0 - - - - - - -
31/10:30am 18.9 SE 2 4 1009.8 - 0.0 - - - - - - -
31/10:00am 17.5 S 3 5 1010.3 - 0.0 - - - - - - -
31/09:30am 16.6 SSE 1 3 1010.7 - 0.0 - - - - - - -
31/09:00am 15.8 SSE 3 5 1011.1 - 0.0 - - - - - - -
31/08:30am 14.6 SSW 1 2 1011.3 - 0.0 - - - - - - -
31/08:00am 13.3 CALM 0 0 1011.4 - 0.0 - - - - - - -
31/07:30am 12.0 CALM 0 0 1011.4 - 0.0 - - - - - - -
31/07:00am 10.5 CALM 0 2 1011.4 - 0.0 - - - - - - -
31/06:30am 10.8 CALM 0 0 1011.4 - 0.0 - - - - - - -
31/06:00am 10.7 N 2 3 1011.4 - 0.0 - - - - - - -
31/05:30am 11.5 NE 2 2 1011.2 - 0.0 - - - - - - -
31/05:00am 12.1 N 2 4 1011.4 - 0.0 - - - - - - -
31/04:30am 12.5 NE 2 3 1011.5 - 0.0 - - - - - - -
31/04:00am 12.5 ENE 2 3 1011.9 - 0.0 - - - - - - -
31/03:30am 11.8 ENE 3 4 1012.3 - 0.0 - - - - - - -
31/03:00am 11.7 ENE 1 3 1012.6 - 0.0 - - - - - - -
31/02:30am 10.8 CALM 0 0 1013.0 - 0.0 - - - - - - -
31/02:00am 10.9 ENE 1 2 1013.3 - 0.0 - - - - - - -
31/01:30am 12.0 CALM 0 0 1013.8 - 0.0 - - - - - - -
31/01:00am 12.9 CALM 0 0 1014.0 - 0.0 - - - - - - -
31/12:30am 13.5 ENE 1 2 1014.1 - 0.0 - - - - - - -
31/12:00am 13.4 NNE 1 2 1014.3 - 0.0 - - - - - - -
 
Date/Time
EDT
Temp

°C
Wind Pressure Rain
since 9am
mm
Weather Cloud Vis
km
Sea
Height
m
Swell
Dir
 
Speed
knots
Gust
knots
hPa Trend Height
m
Period
s
Dir
30/11:30pm 13.5 ENE 2 2 1014.3 - 0.0 - - - - - - -
30/11:00pm 13.4 ENE 1 2 1014.6 - 0.0 - - - - - - -
30/10:30pm 13.4 ENE 1 2 1014.8 - 0.0 - - - - - - -
30/10:00pm 13.4 ENE 2 4 1014.9 - 0.0 - - - - - - -
30/09:30pm 13.2 ENE 1 2 1015.3 - 0.0 - - - - - - -
30/09:00pm 13.7 CALM 0 0 1015.2 - 0.0 - - - - - - -
30/08:30pm 13.5 CALM 0 0 1015.0 - 0.0 - - - - - - -
30/08:00pm 12.9 ENE 2 2 1014.8 - 0.0 - - - - - - -
30/07:30pm 13.8 E 1 2 1014.9 - 0.0 - - - - - - -
30/07:00pm 14.7 S 2 5 1014.7 - 0.0 - - - - - - -
30/06:30pm 15.2 S 5 7 1014.3 - 0.0 - - - - - - -
30/06:00pm 15.9 S 5 8 1014.0 - 0.0 - - - - - - -
30/05:30pm 16.1 S 6 9 1013.6 - 0.0 - - - - - - -
30/05:00pm 15.7 SE 6 11 1013.0 - 0.0 - - - - - - -
30/04:30pm 16.7 SSE 7 10 1012.6 - 0.0 - - - - - - -
30/04:00pm 17.6 SSE 6 9 1012.3 - 0.0 - - - - - - -
30/03:30pm 18.0 SSE 6 9 1012.2 - 0.0 - - - - - - -
30/03:00pm 18.0 S 5 8 1012.6 - 0.0 - - - - - - -
30/02:30pm 17.9 SSW 7 11 1012.9 - 0.0 - - - - - - -
30/02:00pm 18.2 S 6 11 1012.9 - 0.0 - - - - - - -
30/01:30pm 18.0 S 6 10 1012.9 - 0.0 - - - - - - -
30/01:00pm 17.5 S 5 9 1013.1 - 0.0 - - - - - - -
30/12:30pm 17.7 S 7 10 1013.3 - 0.0 - - - - - - -
30/12:00pm 18.2 S 7 13 1013.8 - 0.0 - - - - - - -
30/11:30am 18.4 S 4 8 1014.0 - 0.0 - - - - - - -
30/11:00am 18.3 W 2 4 1014.2 - 0.0 - - - - - - -
30/10:30am 17.9 W 3 7 1014.5 - 0.0 - - - - - - -
30/10:00am 16.8 WSW 4 7 1014.9 - 0.0 - - - - - - -
30/09:30am 15.9 W 2 4 1014.7 - 0.0 - - - - - - -
30/09:00am 15.2 WSW 3 4 1014.6 - 0.0 - - - - - - -
30/08:30am 14.9 NNW 3 5 1014.0 - 0.0 - - - - - - -
30/08:00am 13.8 N 4 5 1014.4 - 0.0 - - - - - - -
30/07:30am 11.2 N 4 5 1014.5 - 0.0 - - - - - - -
30/07:00am 9.2 NNW 2 2 1014.6 - 0.0 - - - - - - -
30/06:30am 8.8 N 3 4 1014.4 - 0.0 - - - - - - -
30/06:00am 7.8 NW 1 2 1014.4 - 0.0 - - - - - - -
30/05:30am 9.0 N 3 4 1014.3 - 0.0 - - - - - - -
30/05:00am 8.3 N 2 4 1014.2 - 0.0 - - - - - - -
30/04:30am 7.8 NNE 3 4 1014.1 - 0.0 - - - - - - -
30/04:00am 8.2 CALM 0 1 1014.3 - 0.0 - - - - - - -
30/03:30am 8.5 N 2 2 1014.5 - 0.0 - - - - - - -
30/03:00am 8.7 N 1 1 1014.5 - 0.0 - - - - - - -
30/02:30am 8.9 CALM 0 0 1014.8 - 0.0 - - - - - - -
30/02:00am 9.5 CALM 0 0 1014.9 - 0.0 - - - - - - -
30/01:30am 10.2 CALM 0 0 1015.1 - 0.0 - - - - - - -
30/01:00am 10.2 CALM 0 0 1015.7 - 0.0 - - - - - - -
30/12:30am 10.8 NE 2 3 1016.1 - 0.0 - - - - - - -
30/12:00am 10.6 CALM 0 0 1016.5 - 0.0 - - - - - - -
 
Date/Time
EDT
Temp

°C
Wind Pressure Rain
since 9am
mm
Weather Cloud Vis
km
Sea
Height
m
Swell
Dir
 
Speed
knots
Gust
knots
hPa Trend Height
m
Period
s
Dir
29/11:30pm 10.3 NNE 2 3 1016.5 - 0.0 - - - - - - -
29/11:00pm 10.5 NE 2 3 1016.7 - 0.0 - - - - - - -
29/10:30pm 11.2 NE 2 3 1016.8 - 0.0 - - - - - - -
29/10:00pm 11.3 NE 3 4 1017.0 - 0.0 - - - - - - -
29/09:30pm 11.2 NE 3 5 1017.2 - 0.0 - - - - - - -
29/09:00pm 11.3 NE 3 3 1017.0 - 0.0 - - - - - - -
29/08:30pm 11.8 CALM 0 2 1016.7 - 0.0 - - - - - - -
29/08:00pm 12.6 CALM 0 1 1016.5 - 0.0 - - - - - - -
29/07:30pm 13.5 ESE 1 3 1016.1 - 0.0 - - - - - - -
29/07:00pm 14.3 SSE 3 6 1015.8 - 0.0 - - - - - - -
29/06:30pm 14.9 S 4 7 1015.4 - 0.0 - - - - - - -
29/06:00pm 15.4 SSE 4 6 1015.1 - 0.0 - - - - - - -
29/05:30pm 15.9 S 5 8 1014.8 - 0.0 - - - - - - -
29/05:00pm 16.2 SSE 5 8 1014.7 - 0.0 - - - - - - -
29/04:30pm 16.4 SE 5 9 1014.5 - 0.0 - - - - - - -
29/04:00pm 16.9 SSE 5 11 1014.5 - 0.0 - - - - - - -
29/03:30pm 16.9 S 6 11 1014.7 - 0.0 - - - - - - -
29/03:00pm 17.1 S 5 9 1015.1 - 0.0 - - - - - - -
29/02:30pm 17.5 S 5 9 1015.5 - 0.0 - - - - - - -
29/02:00pm 17.0 SSE 6 10 1015.8 - 0.0 - - - - - - -
29/01:30pm 17.4 SE 5 9 1016.1 - 0.0 - - - - - - -
29/01:00pm 17.1 S 4 8 1016.4 - 0.0 - - - - - - -
29/12:30pm 17.7 NW 2 4 1016.8 - 0.0 - - - - - - -
29/12:00pm 17.3 NW 2 7 1017.3 - 0.0 - - - - - - -
29/11:30am 16.9 NW 3 5 1017.8 - 0.0 - - - - - - -
29/11:00am 16.4 W 5 7 1018.1 - 0.0 - - - - - - -
29/10:30am 15.7 W 4 6 1018.3 - 0.0 - - - - - - -
29/10:00am 15.1 WNW 7 13 1018.3 - 0.0 - - - - - - -
29/09:30am 15.0 NW 4 8 1018.2 - 0.0 - - - - - - -
29/09:00am 14.2 WNW 6 8 1018.1 - 0.2 - - - - - - -
29/08:30am 13.3 WNW 5 8 1018.2 - 0.2 - - - - - - -
29/08:00am 12.1 WNW 5 7 1018.0 - 0.2 - - - - - - -
29/07:30am 12.1 WNW 4 7 1017.7 - 0.2 - - - - - - -
29/07:00am 10.5 WNW 6 10 1017.6 - 0.2 - - - - - - -
29/06:30am 10.0 NW 5 8 1017.2 - 0.2 - - - - - - -
29/06:00am 9.8 NW 5 8 1016.8 - 0.2 - - - - - - -
29/05:30am 10.3 WNW 6 9 1016.7 - 0.2 - - - - - - -
29/05:00am 9.7 WNW 5 8 1016.5 - 0.2 - - - - - - -
29/04:30am 9.5 NW 5 8 1015.8 - 0.2 - - - - - - -
29/04:00am 9.8 WNW 5 9 1015.9 - 0.2 - - - - - - -
29/03:30am 10.0 WNW 5 8 1015.9 - 0.2 - - - - - - -
29/03:00am 10.2 WNW 5 9 1015.8 - 0.2 - - - - - - -
29/02:30am 10.1 WNW 4 7 1015.6 - 0.2 - - - - - - -
29/02:00am 10.4 WNW 5 8 1015.3 - 0.2 - - - - - - -
29/01:30am 10.4 WNW 6 9 1015.4 - 0.2 - - - - - - -
29/01:00am 10.6 WNW 5 7 1015.5 - 0.2 - - - - - - -
29/12:30am 10.7 WNW 5 7 1015.5 - 0.2 - - - - - - -
29/12:00am 11.2 W 5 11 1015.4 - 0.2 - - - - - - -
 
Date/Time
EDT
Temp

°C
Wind Pressure Rain
since 9am
mm
Weather Cloud Vis
km
Sea
Height
m
Swell
Dir
 
Speed
knots
Gust
knots
hPa Trend Height
m
Period
s
Dir
28/11:30pm 11.9 W 8 11 1014.8 - 0.2 - - - - - - -
28/11:00pm 12.1 W 7 14 1014.7 - 0.2 - - - - - - -
28/10:30pm 12.6 W 8 12 1014.2 - 0.2 - - - - - - -
28/10:00pm 12.9 WSW 9 16 1013.9 - 0.2 - - - - - - -
28/09:30pm 13.4 W 13 23 1013.4 - 0.2 - - - - - - -

Other Formats:

Comma delimited format used in spreadsheet applications
http://www.bom.gov.au/fwo/IDV60701/IDV60701.95918.axf

JavaScript Object Notation format (JSON) in row-major order
http://www.bom.gov.au/fwo/IDV60701/IDV60701.95918.json